Weather observations for the past three days for
Wilmington International Airport
Metric (Imperial)
Date Time (edt) Wind (kph) Vis. (km) Weather Sky Cond. Temperature (ºC) Relative Humidity Wind Chill (°C) Heat Index (°C) Pressure Precipitation (cm)
Air Dwpt 6 hour altimeter (cm) sea level (mb) 1 hr 3 hr 6 hr
Max. Min.
06 01:53 Calm 16.09 Fair CLR 22.2 22.2 23.9 22.2 100% 75.79 1010.4 0.03
06 00:53 Calm 16.09 Fair CLR 22.8 22.2 96% 75.82 1010.6
05 23:53 W 13 16.09 Fair CLR 23.9 22.8 94% 23 75.82 1010.6
05 22:53 S 6 16.09 Fair CLR 23.3 22.2 94% 75.84 1011.2 0.03
05 21:53 S 6 16.09 Fair CLR 23.3 22.8 97% 75.9 1011.7
05 20:53 SE 11 16.09 A Few Clouds FEW014 FEW050 FEW110 23.3 22.2 94% 75.87 1011.3 0.03
05 19:53 E 9 16.09 Fair CLR 22.8 22.2 36.1 22.2 96% 75.82 1010.8 0.08 0.94
05 18:53 Calm 4.83 Thunderstorm Rain Fog/Mist SCT022 BKN050 OVC090 22.8 21.1 90% 75.82 1010.7 0.86
05 17:53 SW 15 16.09 Fair CLR 32.2 26.1 70% 41 75.69 1009.0
05 16:53 W 20 16.09 Fair CLR 35.6 23.9 51% 42 75.64 1008.4
05 13:53 W 20 G 28 16.09 Fair CLR 35 25.6 35 25.6 58% 44 75.79 1010.5
05 12:53 W 19 16.09 Fair CLR 33.9 25 60% 42 75.84 1011.2
05 11:53 W 22 16.09 Fair CLR 32.8 25 64% 40 75.92 1012.2
05 10:53 W 19 16.09 Fair CLR 31.7 25 68% 39 75.95 1012.5
05 09:53 W 17 16.09 Fair CLR 30 25 75% 36 75.95 1012.6
05 08:53 W 17 16.09 Fair CLR 27.2 24.4 85% 31 75.97 1013.0
05 07:53 SW 15 16.09 Mostly Cloudy BKN006 25.6 24.4 26.1 24.4 93% 27 75.97 1012.8
05 06:53 SW 11 16.09 Mostly Cloudy BKN006 25 24.4 96% 25 75.95 1012.6
05 05:53 SW 11 16.09 Fair CLR 25 24.4 96% 25 75.92 1012.0
05 04:53 W 11 16.09 Fair CLR 25.6 24.4 93% 27 75.95 1012.4
05 03:53 W 13 16.09 Fair CLR 26.1 25 94% 28 75.97 1012.6
05 02:53 Calm 16.09 Fair CLR 25 25 100% 25 76 1013.0
05 01:53 Calm 16.09 Fair CLR 25.6 25 28.9 25.6 97% 27 76.02 1013.5
05 00:53 Calm 16.09 Partly Cloudy SCT015 26.1 25 94% 28 76.07 1014.3
04 23:53 NW 6 16.09 Fair CLR 26.7 25 90% 30 76.15 1015.3
04 22:53 SW 9 16.09 Fair CLR 27.2 25 88% 31 76.12 1014.8
04 21:53 SW 9 16.09 Fair CLR 27.2 25 88% 31 76.15 1015.3
04 20:53 SW 15 16.09 Fair CLR 27.8 25 85% 32 76.07 1014.3
04 19:53 SW 15 16.09 Fair CLR 28.9 24.4 34.4 28.9 77% 34 76.07 1014.1
04 18:53 SW 15 16.09 Fair CLR 30.6 23.9 67% 36 76.02 1013.5
04 17:53 SW 19 16.09 Fair CLR 32.2 24.4 63% 39 76.02 1013.5
04 16:53 SW 17 16.09 A Few Clouds FEW043 33.9 24.4 58% 41 76.02 1013.4
04 15:53 W 13 16.09 A Few Clouds FEW050 34.4 23.9 54% 41 76.1 1014.5
04 14:53 W 11 16.09 Mostly Cloudy BKN045 34.4 23.9 54% 41 76.15 1015.2
04 13:53 W 13 16.09 Mostly Cloudy BKN041 BKN050 33.3 23.9 33.3 26.1 58% 39 76.2 1015.8
04 12:53 SW 13 16.09 A Few Clouds FEW037 32.2 23.9 62% 38 76.23 1016.3
04 11:53 SW 9 16.09 A Few Clouds FEW032 32.2 23.9 62% 38 76.3 1017.1
04 10:53 SW 13 16.09 Fair CLR 30.6 24.4 70% 36 76.3 1017.3
04 09:53 W 13 16.09 A Few Clouds FEW019 30 25.6 77% 37 76.28 1016.8
04 08:53 W 9 16.09 Fair CLR 28.9 25.6 82% 35 76.28 1016.9
04 07:53 Calm 16.09 Fair CLR 26.1 25 26.1 23.3 94% 28 76.28 1016.8
04 06:53 Calm 16.09 A Few Clouds FEW015 23.9 23.9 100% 22 76.25 1016.5
04 05:53 Calm 16.09 Fair CLR 23.9 23.9 100% 22 76.23 1016.1
04 04:53 Calm 16.09 Fair CLR 24.4 23.9 97% 24 76.2 1015.8
04 03:53 Calm 16.09 Fair CLR 24.4 23.9 97% 24 76.2 1016.0
04 02:53 Calm 16.09 Fair CLR 25 24.4 96% 25 76.23 1016.3
04 01:53 S 6 16.09 Fair CLR 25.6 24.4 28.3 25.6 93% 27 76.28 1016.8
04 00:53 Calm 16.09 Fair CLR 26.1 25 94% 28 76.33 1017.4
03 23:53 Calm 16.09 Fair CLR 26.1 25 94% 28 76.33 1017.6
03 22:53 S 6 16.09 Fair CLR 26.1 25 94% 28 76.33 1017.7
03 21:53 S 6 16.09 Fair CLR 27.2 25 88% 31 76.33 1017.6
03 20:53 S 9 16.09 Fair CLR 27.8 25 85% 32 76.25 1016.7
03 19:53 S 15 16.09 Fair CLR 28.3 25 32.8 28.3 82% 33 76.23 1016.1
03 18:53 S 20 16.09 A Few Clouds FEW024 29.4 23.3 70% 34 76.23 1016.3
03 17:53 S 20 16.09 Fair CLR 30.6 25 72% 37 76.25 1016.4
03 16:53 S 15 16.09 Fair CLR 31.7 23.9 63% 37 76.25 1016.4
03 15:53 S 19 16.09 Fair CLR 31.7 22.2 57% 36 76.28 1016.9
03 14:53 Vrbl 11 16.09 Fair CLR 32.2 22.2 56% 36 76.3 1017.3
03 13:53 SE 15 16.09 Fair CLR 32.2 22.2 32.8 25.6 56% 36 76.33 1017.7
03 12:53 SE 11 16.09 Fair CLR 32.8 22.8 56% 38 76.35 1017.9
03 11:53 Vrbl 6 16.09 Partly Cloudy SCT046 32.2 23.9 62% 38 76.38 1018.3
03 10:53 Vrbl 6 16.09 Fair CLR 30.6 24.4 70% 36 76.4 1018.5
03 09:53 SW 7 16.09 Fair CLR 29.4 24.4 75% 35 76.38 1018.3
03 08:53 W 6 16.09 Fair CLR 28.3 25.6 85% 34 76.38 1018.3
03 07:53 Calm 16.09 Fair CLR 25.6 24.4 25.6 23.9 93% 27 76.38 1018.3
03 06:53 Calm 16.09 Fair CLR 23.9 23.3 96% 23 76.33 1017.7
03 05:53 Calm 16.09 Fair CLR 23.9 23.9 100% 22 76.3 1017.3
03 04:53 Calm 16.09 Fair CLR 24.4 23.9 97% 24 76.28 1017.0
03 03:53 Calm 16.09 Fair CLR 24.4 23.9 97% 24 76.28 1016.9
03 02:53 Calm 16.09 Fair CLR 25 24.4 96% 25 76.25 1016.6
Date Time (edt) Wind (kph) Vis. (km) Weather Sky Cond. Air Dwpt Max. Min. Relative Humidity Wind Chill (°C) Heat Index (°C) altimeter (cm) sea level (mb) 1 hr 3 hr 6 hr
6 hour
Temperature (ºC) Pressure Precipitation (cm)